Date,TemperatureHighF,TemperatureAvgF,TemperatureLowF,DewpointHighF,DewpointAvgF,DewpointLowF,HumidityHigh,HumidityAvg,HumidityLow,PressureMaxIn,PressureMinIn,WindSpeedMaxMPH,WindSpeedAvgMPH,GustSpeedMaxMPH,PrecipitationSumIn
2014-3-29,33.7,33.7,33.7,19.0,19.0,19.0,56,56,56,30.31,30.31,0,0,2,0.00
2014-6-27,80.3,72.7,75.2,71.0,59.0,-99.9,84,72,71,29.74,29.71,4,-63,9,0.00
2014-6-28,82.1,74.5,68.6,75.0,70.5,67.0,97,87,74,29.75,29.60,6,2,13,0.51
2014-6-29,86.6,74.8,63.4,70.0,65.5,60.0,96,75,41,29.70,29.62,5,1,15,0.01
2014-6-30,80.8,73.1,67.3,69.0,61.2,53.0,87,68,46,29.64,29.47,6,1,14,0.00
2014-7-1,73.9,66.2,56.9,63.0,57.8,52.0,90,75,60,29.81,29.48,10,2,18,0.04
2014-7-2,75.2,64.0,55.0,54.0,49.6,44.0,91,63,35,30.07,29.81,8,1,16,0.01
2014-7-3,79.1,68.0,58.1,56.0,50.9,47.0,77,56,35,30.18,30.07,6,1,10,0.00
2014-7-4,77.5,74.7,62.3,59.0,55.9,52.0,78,53,43,30.23,30.07,4,1,8,0.00
2014-7-5,85.2,75.7,66.1,70.0,65.0,57.0,84,70,59,30.09,29.82,6,1,8,0.00
2014-7-6,88.7,77.7,69.5,76.0,69.1,62.0,97,77,48,29.83,29.62,9,2,17,0.07
2014-7-7,85.2,73.6,63.7,69.0,64.4,61.0,93,75,50,29.72,29.57,8,1,24,0.32
2014-7-8,75.3,69.2,63.3,62.0,57.0,53.0,85,67,46,29.87,29.60,9,2,21,0.00
2014-7-9,81.2,69.0,57.1,59.0,55.5,51.0,91,64,36,29.98,29.87,5,1,9,0.00
2014-7-10,84.9,73.3,59.3,67.0,61.6,57.0,94,69,48,30.02,29.92,3,0,7,0.00
2014-7-11,80.0,73.7,65.4,73.0,67.2,62.0,97,81,64,29.99,29.89,4,1,11,0.56
2014-7-12,79.5,72.1,66.6,72.0,68.7,65.0,96,89,69,29.97,29.88,8,0,13,0.06
2014-7-13,77.1,69.5,63.0,65.0,56.4,49.0,96,66,40,29.94,29.84,6,1,15,0.00
2014-7-14,66.2,61.3,56.9,56.0,51.5,46.0,89,71,57,30.03,29.85,13,4,20,0.12
2014-7-15,72.0,62.8,55.4,55.0,52.5,50.0,87,70,52,30.06,29.98,10,2,17,0.00
2014-7-16,77.4,65.4,53.6,57.0,52.7,48.0,93,67,38,30.05,29.97,3,0,7,0.00
2014-7-17,80.7,68.9,55.2,60.0,56.5,53.0,96,68,43,30.02,29.96,3,0,6,0.00
2014-7-18,78.9,70.7,60.1,63.0,60.0,57.0,90,70,56,30.01,29.90,6,1,10,0.00
2014-7-19,79.0,73.4,67.2,66.0,63.5,61.0,81,71,61,29.91,29.84,4,0,7,0.00
2014-7-20,86.0,78.2,69.4,71.0,67.5,65.0,86,70,56,29.84,29.76,4,1,10,0.00
2014-7-21,89.0,81.9,74.5,78.0,73.4,68.0,83,76,69,29.86,29.73,4,1,8,0.00
2014-7-22,84.3,78.9,72.2,77.0,66.2,56.0,89,67,44,30.11,29.72,8,2,16,0.00
2014-7-23,81.9,73.0,61.9,59.0,56.5,51.0,86,58,35,30.22,30.11,7,1,11,0.00
2014-7-24,80.9,72.2,60.4,64.0,60.5,58.0,93,69,48,30.12,29.77,5,0,9,0.00
2014-7-25,80.1,72.4,64.1,72.0,66.7,60.0,97,82,71,29.89,29.71,4,0,8,0.30
2014-7-26,87.3,78.3,70.2,71.0,67.7,61.0,95,72,49,29.79,29.71,4,0,10,0.00
2014-7-27,76.5,70.1,65.6,63.0,59.3,57.0,80,69,54,30.09,29.72,13,2,18,0.00
2014-7-28,76.3,69.2,63.6,59.0,56.7,52.0,85,66,46,30.17,30.08,8,1,13,0.00
2014-7-29,79.3,70.8,61.3,60.0,57.4,56.0,83,64,48,30.11,29.99,9,2,15,0.00
2014-7-30,81.3,70.8,58.6,62.0,58.4,54.0,94,67,40,30.05,29.98,6,0,13,0.00
2014-7-31,84.6,71.8,59.6,62.0,58.6,55.0,94,66,38,30.00,29.95,6,0,10,0.00
2014-8-1,87.3,73.9,61.8,65.0,62.2,60.0,95,70,41,30.03,29.97,4,0,9,0.00
2014-8-2,87.4,73.5,64.1,69.0,64.1,60.0,95,75,42,30.08,30.01,6,1,14,0.05
2014-8-3,88.1,75.4,65.0,70.0,65.9,61.0,98,76,40,30.08,29.98,4,0,9,0.16
2014-8-4,80.9,72.9,66.3,69.0,65.9,61.0,97,80,55,30.03,29.97,3,0,9,0.00
2014-8-5,79.5,70.8,61.9,66.0,61.9,60.0,93,75,52,30.09,30.02,4,0,8,0.00
2014-8-6,83.7,72.7,59.2,65.0,61.4,57.0,96,70,49,30.07,29.99,3,0,6,0.00
2014-8-7,82.7,72.9,62.0,67.0,62.4,60.0,96,72,47,30.05,29.97,3,0,7,0.00
2014-8-8,82.1,74.4,66.1,66.0,61.8,55.0,88,67,40,30.06,30.00,3,0,6,0.00
2014-8-9,79.1,72.1,65.2,67.0,62.6,59.0,88,73,53,30.08,30.01,5,0,6,0.00
2014-8-10,82.9,73.9,67.3,69.0,65.4,62.0,94,76,55,30.03,29.90,2,0,7,0.10
2014-8-11,76.6,68.8,63.3,69.0,63.6,58.0,96,84,55,30.02,29.86,8,1,19,0.09
2014-8-12,79.8,69.1,58.7,60.0,56.5,51.0,95,68,39,30.05,29.96,10,2,14,0.00
2014-8-13,80.8,71.2,60.9,64.0,60.4,57.0,91,70,53,30.06,29.98,6,0,7,0.00
2014-8-14,79.3,69.4,59.0,62.0,56.7,52.0,82,65,49,30.11,29.96,4,1,7,0.00
2014-8-15,86.4,75.1,63.8,68.0,64.2,58.0,85,70,54,29.98,29.82,3,0,6,0.00
2014-8-16,88.2,75.4,67.2,72.0,68.5,65.0,93,80,55,29.87,29.79,4,0,7,0.00
2014-8-17,78.3,72.0,67.7,72.0,69.0,66.0,96,90,81,29.93,29.81,3,1,7,0.17
2014-8-18,85.4,74.0,67.3,73.0,68.3,64.0,98,84,54,29.82,29.59,3,0,7,0.03
2014-8-19,82.3,71.4,65.3,67.0,64.7,63.0,94,80,57,29.75,29.61,6,1,12,0.00
2014-8-20,81.7,73.3,63.7,70.0,66.7,62.0,97,80,64,29.84,29.74,5,0,8,0.00
2014-8-21,85.0,75.8,69.6,77.0,71.8,66.0,98,87,76,29.83,29.68,4,1,9,0.10
2014-8-22,78.4,73.4,69.4,72.0,69.7,67.0,96,89,77,29.98,29.79,4,0,6,0.00
2014-8-23,76.3,72.1,68.3,73.0,69.9,67.0,96,93,88,29.96,29.85,5,1,8,0.00
2014-8-24,86.6,78.0,72.3,78.0,73.8,70.0,96,87,70,29.86,29.73,5,1,11,0.09
2014-8-25,79.0,72.5,65.7,69.0,62.0,56.0,97,71,48,30.03,29.81,4,1,12,0.00
2014-8-26,76.1,65.5,57.0,58.0,53.2,49.0,81,66,46,30.20,30.03,5,1,11,0.00
2014-8-27,76.7,68.1,59.8,61.0,58.6,56.0,89,73,55,30.21,30.07,5,0,5,0.00
2014-8-28,71.8,64.4,61.2,65.0,59.5,57.0,92,82,74,30.10,29.86,4,1,8,0.01
2014-8-29,78.5,70.9,67.2,72.0,68.6,65.0,97,92,78,29.85,29.67,4,0,9,0.85
2014-8-30,74.9,69.8,65.8,69.0,65.6,63.0,98,87,72,29.84,29.71,4,0,8,1.19
2014-8-31,84.5,72.1,63.0,73.0,66.6,61.0,97,83,62,29.86,29.57,4,1,26,0.39
2014-9-1,76.8,69.0,61.8,66.0,62.0,57.0,98,80,51,29.77,29.57,10,1,13,0.52
2014-9-2,77.8,68.4,61.4,61.0,57.7,51.0,94,72,42,29.86,29.76,9,0,11,0.00
2014-9-3,77.7,67.6,59.6,73.0,64.3,57.0,97,89,78,29.88,29.62,2,0,7,0.05
2014-9-4,83.9,75.5,67.7,77.0,71.5,61.0,96,87,74,29.85,29.54,7,1,13,0.05
2014-9-5,68.9,61.2,53.1,60.0,52.5,50.0,90,73,61,30.16,29.84,10,2,17,0.00
2014-9-6,76.0,62.1,50.2,57.0,53.1,49.0,96,75,45,30.19,30.11,6,1,9,0.00
2014-9-7,75.3,65.2,52.6,57.0,53.1,49.0,93,68,40,30.14,29.98,4,0,8,0.00
2014-9-8,74.4,66.3,58.4,61.0,57.4,54.0,85,74,61,29.98,29.80,4,1,10,0.00
2014-9-9,74.6,67.9,60.7,69.0,64.1,59.0,96,88,79,29.84,29.68,3,0,7,0.41
2014-9-10,67.3,54.3,47.6,66.0,51.3,42.0,97,90,80,30.11,29.62,12,2,19,0.03
2014-9-11,56.4,50.2,44.0,44.0,41.0,38.0,89,72,52,30.39,30.11,8,0,9,0.03
2014-9-12,54.1,48.8,42.6,43.0,39.0,32.0,88,71,44,30.44,30.36,8,1,13,0.00
2014-9-13,59.8,49.9,37.8,44.0,39.2,36.0,96,70,44,30.37,30.15,4,0,8,0.00
2014-9-14,63.6,56.7,50.8,49.0,44.4,40.0,82,65,42,30.15,30.07,7,1,13,0.00
2014-9-15,60.5,53.7,44.1,50.0,45.1,39.0,93,74,47,30.21,30.12,8,1,12,0.06
2014-9-16,66.8,53.0,40.7,51.0,44.8,39.0,98,77,47,30.21,30.00,4,0,7,0.06
2014-9-17,73.3,61.7,53.4,58.0,53.8,50.0,94,76,55,30.00,29.91,2,0,4,0.00
2014-9-18,73.2,60.0,47.8,61.0,53.9,46.0,95,81,54,30.09,29.96,3,0,6,0.00
2014-9-19,78.2,66.4,57.6,68.0,60.5,54.0,94,81,67,29.97,29.61,10,1,10,0.00
2014-9-20,75.9,67.0,56.5,68.0,60.5,54.0,93,81,52,29.82,29.64,7,1,22,0.23
2014-9-21,66.3,58.3,53.0,53.0,49.8,48.0,88,74,52,30.21,29.81,10,3,17,0.23
2014-9-22,71.1,58.3,46.0,55.0,51.2,44.0,97,79,53,30.26,30.13,4,0,7,0.00
2014-9-23,72.4,61.7,47.7,58.0,53.1,47.0,98,76,54,30.21,30.11,4,1,8,0.00
2014-9-24,64.0,62.1,59.3,58.0,55.6,53.0,90,79,71,30.16,30.10,3,1,9,0.02
2014-9-25,75.4,66.3,59.7,65.0,59.9,56.0,91,80,66,30.19,30.12,3,0,5,0.02
2014-9-26,79.5,67.9,56.1,61.0,58.9,54.0,95,75,52,30.16,30.06,5,0,8,0.00
2014-9-27,81.5,70.7,62.2,65.0,61.3,58.0,88,74,52,30.12,30.03,4,0,7,0.00
2014-9-28,81.3,68.5,57.7,64.0,59.9,56.0,97,76,47,30.10,29.98,4,0,6,0.00
2014-9-29,64.2,56.2,46.0,61.0,51.9,43.0,95,85,75,30.12,29.98,5,1,9,0.15
2014-9-30,58.2,49.5,42.3,49.0,44.3,40.0,91,83,70,30.11,29.85,7,2,12,0.15
2014-10-1,58.0,53.5,50.4,57.0,51.4,47.0,98,93,84,29.89,29.76,6,1,8,0.31
2014-10-2,59.0,55.7,49.5,59.0,55.0,49.0,98,97,96,29.84,29.73,9,0,11,0.43
2014-10-3,49.7,45.4,38.1,49.0,37.9,29.0,98,76,54,29.82,29.71,12,4,22,0.10
2014-10-4,50.1,43.1,37.0,36.0,33.8,31.0,92,71,53,29.81,29.70,14,4,22,0.03
2014-10-5,48.8,41.3,33.4,37.0,34.2,30.0,89,77,60,29.70,29.56,5,1,15,0.02
2014-10-6,61.8,47.1,33.8,45.0,38.5,32.0,96,74,48,29.56,29.42,3,0,10,0.02
2014-10-7,60.1,51.6,43.9,45.0,39.5,32.0,87,65,41,29.86,29.47,11,1,18,0.02
2014-10-8,57.5,48.3,39.6,40.0,34.9,29.0,90,62,35,30.09,29.85,9,2,17,0.01
2014-10-9,53.1,43.0,33.0,37.0,33.6,30.0,91,71,49,30.24,30.10,5,1,11,0.01
2014-10-10,51.7,42.0,32.0,40.0,34.3,30.0,97,76,50,30.29,30.21,9,1,12,0.00
2014-10-11,56.7,43.7,30.6,41.0,34.6,29.0,98,74,45,30.27,30.00,4,0,7,0.00
2014-10-12,61.3,51.0,42.0,49.0,40.8,36.0,88,69,45,30.00,29.75,7,1,11,0.00
2014-10-13,57.1,53.4,51.1,52.0,50.6,49.0,93,90,83,29.80,29.75,4,0,10,0.00
2014-10-14,63.8,54.9,48.7,50.0,44.8,40.0,91,71,43,29.96,29.76,9,2,14,0.00
2014-10-15,64.7,50.0,38.0,44.0,40.0,36.0,96,72,37,30.03,29.86,4,0,8,0.00
2014-10-16,72.0,55.0,37.4,49.0,43.4,36.0,96,69,41,29.86,29.55,5,0,11,0.00
2014-10-17,59.2,53.6,50.5,50.0,45.4,41.0,79,74,66,30.05,29.56,16,3,22,0.00
2014-10-18,52.4,46.4,39.5,43.0,38.0,36.0,90,73,58,30.24,30.05,4,1,12,0.00
2014-10-19,68.3,53.2,37.3,49.0,43.4,35.0,95,72,48,30.11,29.76,6,1,11,0.00
2014-10-20,63.1,53.4,43.3,47.0,43.3,39.0,92,70,51,30.08,29.86,9,2,14,0.00
2014-10-21,57.4,46.6,35.4,44.0,39.7,34.0,97,78,60,30.21,30.08,6,1,11,0.00
2014-10-22,60.1,50.4,40.8,46.0,41.9,38.0,89,73,58,30.21,30.03,6,2,13,0.00
2014-10-23,68.4,56.5,48.8,55.0,50.4,45.0,96,82,48,30.02,29.93,1,0,6,0.03
2014-10-24,68.0,54.9,45.9,58.0,50.8,45.0,97,87,68,29.96,29.80,4,0,7,0.00
2014-10-25,63.0,56.3,41.0,48.0,35.0,26.0,70,47,26,30.04,29.88,10,2,20,0.00
2014-10-26,63.9,48.9,32.8,38.0,33.5,31.0,96,60,30,30.04,29.63,5,1,11,0.00
2014-10-27,66.4,53.9,42.6,48.0,41.2,36.0,85,64,44,29.70,29.53,7,1,15,0.00
2014-10-28,48.3,43.9,41.4,43.0,37.5,33.0,91,78,65,29.98,29.69,13,2,19,0.00
2014-10-29,43.0,39.3,35.1,35.0,32.6,31.0,91,77,70,30.18,29.98,12,2,19,0.00
2014-10-30,49.1,41.5,33.2,40.0,33.8,16.0,91,75,47,30.39,30.06,13,2,23,0.00
2014-10-31,39.2,31.7,25.2,21.0,19.2,16.0,80,61,44,30.60,30.39,8,2,17,0.00
2014-11-1,42.8,32.9,22.7,26.0,22.6,19.0,88,68,48,30.52,30.22,9,2,11,0.00
2014-11-2,56.5,45.2,34.6,34.0,29.2,23.0,67,55,40,30.22,29.89,8,2,13,0.00
2014-11-3,55.3,48.5,42.7,49.0,41.2,32.0,88,76,60,29.89,29.76,6,1,15,0.00
2014-11-4,53.5,45.1,36.6,39.0,33.6,29.0,80,65,48,30.03,29.82,9,2,21,0.00
2014-11-5,45.3,38.9,31.9,39.0,35.3,28.0,94,87,76,30.04,29.88,7,1,12,0.05
2014-11-6,43.7,36.5,28.9,34.0,30.6,27.0,93,80,57,30.31,30.05,10,3,14,0.05
2014-11-7,48.1,38.4,28.8,44.0,33.3,27.0,94,82,71,30.23,29.70,14,2,27,0.00
2014-11-8,42.1,38.8,35.4,34.0,27.3,23.0,79,64,52,30.07,29.83,14,4,27,0.00
2014-11-9,39.9,36.8,31.9,33.0,22.6,13.0,80,58,37,29.85,29.74,6,2,12,0.00
2014-11-10,32.3,28.4,25.6,28.0,24.5,14.0,95,87,48,29.96,29.63,14,4,19,0.00
2014-11-11,26.6,24.0,19.7,22.0,19.1,13.0,92,82,70,30.31,29.94,12,4,22,0.00
2014-11-12,24.0,20.9,17.0,21.0,16.2,13.0,90,82,76,30.38,30.31,7,1,15,0.00
2014-11-13,25.0,21.6,18.6,20.0,16.0,12.0,87,79,67,30.45,30.38,9,4,15,0.00
2014-11-14,23.1,16.2,8.9,14.0,10.5,6.0,89,79,63,30.46,30.39,6,1,12,0.00
2014-11-15,23.0,16.2,6.2,21.0,13.6,3.0,92,89,86,30.41,30.17,2,0,4,0.00
2014-11-16,22.3,15.2,8.6,20.0,10.3,5.0,93,81,66,30.16,29.92,5,1,12,0.00
2014-11-17,16.6,12.0,8.3,9.0,4.9,3.0,81,73,64,30.07,29.95,14,4,22,0.00
2014-11-18,18.2,14.7,9.8,15.0,8.2,4.0,88,75,65,30.11,29.81,9,2,15,0.00
2014-11-19,24.8,21.5,17.8,18.0,14.9,12.0,89,76,64,30.02,29.77,14,4,23,0.00
2014-11-20,18.4,13.9,5.9,12.0,5.0,1.0,86,68,55,30.34,30.02,11,2,20,0.00
2014-11-21,32.4,19.7,4.2,29.0,14.6,1.0,89,81,69,30.35,29.93,7,2,11,0.00
2014-11-22,38.9,36.0,32.8,38.0,34.3,30.0,97,93,89,29.93,29.53,5,1,8,0.28
2014-11-23,48.7,41.9,32.7,48.0,40.6,31.0,99,95,86,29.52,29.35,9,2,16,0.03
2014-11-24,32.5,23.1,16.3,31.0,19.0,11.0,94,84,76,29.98,29.32,16,6,22,0.03
2014-11-25,25.2,19.2,11.9,19.0,13.8,8.0,87,79,71,30.15,29.98,6,1,13,0.00
2014-11-26,26.8,23.5,13.6,24.0,18.4,5.0,92,81,66,30.46,30.08,6,2,14,0.00
2014-11-27,12.4,6.3,0.0,3.0,-1.0,-4.0,83,72,60,30.61,30.36,6,1,14,0.00
2014-11-28,23.9,18.0,7.4,20.0,13.7,3.0,88,83,76,30.36,29.74,4,1,9,0.00
2014-11-29,38.5,29.2,22.2,32.0,25.7,19.0,93,87,76,29.73,29.45,10,1,15,0.09
2014-11-30,24.4,13.1,6.1,20.0,4.7,-1.0,82,69,60,30.55,29.73,13,4,22,0.09
2014-12-1,8.1,3.6,-0.5,-1.0,-7.1,-11.0,73,62,48,30.86,30.52,9,2,17,0.00
2014-12-2,22.7,16.8,3.4,16.0,9.6,-3.0,91,74,63,30.51,30.03,7,1,10,0.00
2014-12-3,23.1,16.9,9.4,15.0,9.9,6.0,89,74,57,30.40,30.07,5,1,13,0.00
2014-12-4,31.7,24.9,12.6,23.0,15.1,10.0,90,68,45,30.41,30.15,5,2,9,0.00
2014-12-5,32.5,30.0,21.2,30.0,27.0,19.0,93,88,78,30.45,30.13,3,0,6,0.00
2014-12-6,32.6,24.9,17.8,25.0,18.9,14.0,93,78,62,30.72,30.45,5,0,5,0.00
2014-12-7,35.0,30.5,22.8,33.0,26.5,19.0,94,85,79,30.60,30.06,10,2,15,0.00
2014-12-8,35.2,29.9,22.2,34.0,26.2,17.0,96,86,77,30.38,30.00,12,4,20,0.01
2014-12-9,23.5,20.3,15.4,22.0,17.4,12.0,94,88,81,30.57,30.38,7,1,14,0.00
2014-12-10,28.3,25.6,21.7,26.0,23.9,21.0,95,93,89,30.48,30.32,4,1,9,0.00
2014-12-11,31.7,29.0,27.6,31.0,27.4,25.0,96,93,90,30.32,30.23,3,0,5,0.00
2014-12-12,36.7,34.7,31.7,36.0,33.2,31.0,97,94,91,30.25,30.10,4,1,7,0.00
2014-12-13,46.9,41.1,33.4,46.0,40.3,33.0,98,97,94,30.10,29.93,3,0,6,0.01
2014-12-14,47.8,45.6,42.6,48.0,45.2,42.0,99,98,96,29.95,29.80,2,0,4,0.01
2014-12-15,48.2,42.5,29.8,48.0,42.2,29.0,99,98,95,29.86,29.68,8,1,18,0.20
2014-12-16,28.9,22.1,18.3,28.0,18.9,15.0,95,87,82,30.33,29.87,16,5,22,0.20
2014-12-17,19.7,15.0,10.5,14.0,11.2,8.0,91,85,77,30.41,30.33,9,1,10,0.00
2014-12-18,22.5,18.1,11.5,19.0,15.5,9.0,93,89,83,30.41,30.33,1,0,5,0.00
2014-12-19,29.7,26.1,21.1,27.0,23.2,18.0,91,89,86,30.35,30.21,5,0,7,0.00
2014-12-20,32.5,31.0,29.6,30.0,28.6,27.0,93,91,89,30.22,30.10,6,1,8,0.00
2014-12-21,37.9,34.6,31.7,37.0,33.7,29.0,98,96,89,30.09,29.74,5,2,10,0.10
2014-12-22,37.9,36.6,35.2,37.0,35.8,34.0,98,97,94,29.74,29.61,7,2,13,0.08
2014-12-23,36.2,35.2,34.1,34.0,33.5,33.0,95,93,89,29.89,29.63,6,3,15,0.02
2014-12-24,36.3,34.9,31.6,34.0,32.4,29.0,93,90,87,29.87,29.61,10,2,13,0.03
2014-12-25,35.1,32.4,30.1,32.0,30.1,28.0,96,91,86,29.90,29.61,3,0,8,0.00
2014-12-26,32.7,31.4,28.3,32.0,29.4,27.0,96,92,84,30.13,29.88,6,2,10,0.00
2014-12-27,28.0,21.4,10.4,26.0,18.0,7.0,95,87,69,30.18,30.03,8,2,16,0.00
2014-12-28,23.8,14.4,5.1,18.0,10.1,3.0,93,83,70,30.47,30.15,3,0,5,0.00
2014-12-29,11.1,6.3,2.5,3.0,-0.9,-4.0,79,72,60,30.79,30.47,8,2,10,0.00
2014-12-30,5.4,0.2,-4.3,-3.0,-6.1,-9.0,82,75,66,30.89,30.72,5,1,13,0.00
2014-12-31,13.7,4.5,-6.1,7.0,-1.4,-10.0,83,77,64,30.71,30.04,7,1,16,0.00
2015-1-1,31.0,21.8,11.7,24.0,15.9,7.0,86,78,65,30.23,29.91,7,2,16,0.00
2015-1-2,28.5,18.6,4.3,23.0,12.4,1.0,87,77,62,30.29,30.05,4,1,9,0.00